createdAt,value
2022-12-29T00:01:56.937Z,4.38
2022-12-29T00:04:03.285Z,3.20
2022-12-29T00:06:09.180Z,2.28
2022-12-29T00:08:14.875Z,2.60
2022-12-29T00:10:23.596Z,2.72
2022-12-29T00:12:55.451Z,2.95
2022-12-29T00:15:13.926Z,2.92
2022-12-29T00:17:22.786Z,3.08
2022-12-29T00:19:44.406Z,3.00
2022-12-29T00:22:02.169Z,3.10
2022-12-29T00:24:22.017Z,2.22
2022-12-29T00:26:42.939Z,2.60
2022-12-29T00:29:02.642Z,2.65
2022-12-29T00:31:28.756Z,2.53
2022-12-29T00:33:49.346Z,1.95
2022-12-29T00:36:03.734Z,2.47
2022-12-29T00:38:25.088Z,3.03
2022-12-29T00:40:43.512Z,2.90
2022-12-29T00:43:04.054Z,3.22
2022-12-29T00:45:11.156Z,3.53
2022-12-29T00:47:17.026Z,5.15
2022-12-29T00:49:34.039Z,2.38
2022-12-29T00:51:40.707Z,2.75
2022-12-29T00:53:46.198Z,2.92
2022-12-29T00:55:51.882Z,3.35
2022-12-29T00:57:59.939Z,3.42
2022-12-29T01:00:06.209Z,2.65
2022-12-29T01:02:14.373Z,3.42
2022-12-29T01:04:20.210Z,2.65
2022-12-29T01:06:26.634Z,3.67
2022-12-29T01:08:32.809Z,3.05
2022-12-29T01:10:35.889Z,3.85
2022-12-29T01:14:54.519Z,3.47
2022-12-29T01:17:00.510Z,3.25
2022-12-29T01:19:06.181Z,4.50
2022-12-29T01:21:14.433Z,3.03
2022-12-29T01:23:20.827Z,3.05
2022-12-29T01:25:26.123Z,3.25
2022-12-29T01:27:31.472Z,2.55
2022-12-29T01:29:37.985Z,2.15
2022-12-29T01:31:46.894Z,3.05
2022-12-29T01:33:52.284Z,1.77
2022-12-29T01:35:57.622Z,3.50
2022-12-29T01:38:03.169Z,2.55
2022-12-29T01:40:10.147Z,3.33
2022-12-29T01:42:21.646Z,2.22
2022-12-29T01:44:52.436Z,1.85
2022-12-29T01:47:00.545Z,2.63
2022-12-29T01:49:15.127Z,3.15
2022-12-29T01:51:21.493Z,2.92
2022-12-29T01:53:33.219Z,3.25
2022-12-29T01:55:44.459Z,3.63
2022-12-29T01:57:55.949Z,2.95
2022-12-29T02:00:05.726Z,2.88
2022-12-29T02:02:21.533Z,3.03
2022-12-29T02:04:30.619Z,4.47
2022-12-29T02:06:45.345Z,3.03
2022-12-29T02:08:54.471Z,3.35
2022-12-29T02:11:04.689Z,2.80
2022-12-29T02:13:13.139Z,3.00
2022-12-29T02:15:20.397Z,1.92
2022-12-29T02:17:48.351Z,2.38
2022-12-29T02:20:37.220Z,1.90
2022-12-29T02:23:04.672Z,1.63
2022-12-29T02:25:41.561Z,1.70
2022-12-29T02:28:17.193Z,1.55
2022-12-29T02:31:02.424Z,1.85
2022-12-29T02:33:24.517Z,2.78
2022-12-29T02:35:40.209Z,3.13
2022-12-29T02:37:56.158Z,2.65
2022-12-29T02:40:16.648Z,3.20
2022-12-29T02:42:31.780Z,2.28
2022-12-29T02:44:51.607Z,3.08
2022-12-29T02:47:13.350Z,2.47
2022-12-29T02:49:24.040Z,3.58
2022-12-29T02:51:37.273Z,2.80
2022-12-29T02:53:55.810Z,2.35
2022-12-29T02:56:01.560Z,1.90
2022-12-29T02:58:26.447Z,2.83
2022-12-29T03:00:32.608Z,1.83
2022-12-29T03:03:15.899Z,2.60
2022-12-29T03:05:59.964Z,2.67
2022-12-29T03:08:22.303Z,2.38
2022-12-29T03:10:41.405Z,1.95
2022-12-29T03:13:09.893Z,2.83
2022-12-29T03:15:38.203Z,2.05
2022-12-29T03:17:58.431Z,1.73
2022-12-29T03:20:11.195Z,1.83
2022-12-29T03:22:35.711Z,3.47
2022-12-29T03:24:53.888Z,1.83
2022-12-29T03:27:05.434Z,1.13
2022-12-29T03:29:17.997Z,2.42
2022-12-29T03:31:28.588Z,2.85
2022-12-29T03:33:38.805Z,2.00
2022-12-29T03:35:47.973Z,2.67
2022-12-29T03:38:03.229Z,1.85
2022-12-29T03:40:10.830Z,2.17
2022-12-29T03:42:21.762Z,2.38
2022-12-29T03:44:37.829Z,1.95
2022-12-29T03:46:43.777Z,3.58
2022-12-29T03:48:52.367Z,2.25
2022-12-29T03:50:57.986Z,4.35
2022-12-29T03:53:03.460Z,3.58
2022-12-29T03:55:11.440Z,3.60
2022-12-29T03:57:18.415Z,3.80
2022-12-29T03:59:32.378Z,3.80
2022-12-29T04:01:37.940Z,3.03
2022-12-29T04:03:43.611Z,2.78
2022-12-29T04:05:53.841Z,3.45
2022-12-29T04:08:01.087Z,2.65
2022-12-29T04:10:07.418Z,3.08
2022-12-29T04:12:14.714Z,3.35
2022-12-29T04:14:21.207Z,4.30
2022-12-29T04:16:26.858Z,3.80
2022-12-29T04:18:32.335Z,2.75
2022-12-29T04:20:50.677Z,3.08
2022-12-29T04:23:04.580Z,1.85
2022-12-29T04:25:12.769Z,2.20
2022-12-29T04:27:18.167Z,2.92
2022-12-29T04:29:47.611Z,3.00
2022-12-29T04:32:10.824Z,2.67
2022-12-29T04:34:22.073Z,2.67
2022-12-29T04:36:30.240Z,3.30
2022-12-29T04:38:38.879Z,2.08
2022-12-29T04:40:46.433Z,3.20
2022-12-29T04:42:52.312Z,2.67
2022-12-29T04:44:59.584Z,3.72
2022-12-29T04:47:15.730Z,1.55
2022-12-29T04:49:42.569Z,2.55
2022-12-29T04:52:20.059Z,2.83
2022-12-29T04:54:28.391Z,2.05
2022-12-29T04:56:53.937Z,4.05
2022-12-29T04:58:59.512Z,1.77
2022-12-29T05:01:05.995Z,2.70
2022-12-29T05:03:11.765Z,3.35
2022-12-29T05:05:20.308Z,2.58
2022-12-29T05:07:28.924Z,2.15
2022-12-29T05:09:37.789Z,1.70
2022-12-29T05:11:44.112Z,1.88
2022-12-29T05:13:50.256Z,2.28
2022-12-29T05:15:57.867Z,2.92
2022-12-29T05:18:03.694Z,3.70
2022-12-29T05:20:11.634Z,2.22
2022-12-29T05:22:17.195Z,2.55
2022-12-29T05:24:24.720Z,2.03
2022-12-29T05:26:38.417Z,3.38
2022-12-29T05:28:49.603Z,2.47
2022-12-29T05:30:58.637Z,1.65
2022-12-29T05:33:04.098Z,2.38
2022-12-29T05:35:11.304Z,2.25
2022-12-29T05:37:17.087Z,1.95
2022-12-29T05:39:23.877Z,1.85
2022-12-29T05:41:34.230Z,2.33
2022-12-29T05:43:57.261Z,3.03
2022-12-29T05:46:21.453Z,1.80
2022-12-29T05:48:45.551Z,2.08
2022-12-29T05:51:00.291Z,2.50
2022-12-29T05:53:16.076Z,2.42
2022-12-29T05:55:23.941Z,2.33
2022-12-29T05:57:31.833Z,1.67
2022-12-29T05:59:49.652Z,2.58
2022-12-29T06:01:55.142Z,2.00
2022-12-29T06:04:01.550Z,2.33
2022-12-29T06:06:08.140Z,2.15
2022-12-29T06:08:13.733Z,2.90
2022-12-29T06:10:19.972Z,2.22
2022-12-29T06:12:40.286Z,3.28
2022-12-29T06:14:48.163Z,1.92
2022-12-29T06:16:53.574Z,2.33
2022-12-29T06:19:00.545Z,1.83
2022-12-29T06:21:07.829Z,2.92
2022-12-29T06:23:13.148Z,2.03
2022-12-29T06:25:19.308Z,1.45
2022-12-29T06:27:25.937Z,2.38
2022-12-29T06:29:32.790Z,3.35
2022-12-29T06:31:40.873Z,2.58
2022-12-29T06:33:49.828Z,2.88
2022-12-29T06:35:56.015Z,3.20
2022-12-29T06:38:01.358Z,5.78
2022-12-29T06:40:07.270Z,4.18
2022-12-29T06:42:29.226Z,6.32
2022-12-29T06:44:52.021Z,2.80
2022-12-29T06:47:00.235Z,2.90
2022-12-29T06:49:05.956Z,3.80
2022-12-29T06:51:11.315Z,2.22
2022-12-29T06:53:16.676Z,3.92
2022-12-29T06:55:22.348Z,2.67
2022-12-29T06:57:27.799Z,3.45
2022-12-29T06:59:33.166Z,2.20
2022-12-29T07:01:38.857Z,3.28
2022-12-29T07:03:48.329Z,2.30
2022-12-29T07:05:55.282Z,2.50
2022-12-29T07:08:01.035Z,2.25
2022-12-29T07:10:07.721Z,2.85
2022-12-29T07:12:13.098Z,2.38
2022-12-29T07:14:18.659Z,2.28
2022-12-29T07:16:24.115Z,2.97
2022-12-29T07:18:29.394Z,3.03
2022-12-29T07:20:37.610Z,4.90
2022-12-29T07:22:42.996Z,3.10
2022-12-29T07:24:48.350Z,2.97
2022-12-29T07:26:53.657Z,2.97
2022-12-29T07:28:59.641Z,2.10
2022-12-29T07:31:05.384Z,3.72
2022-12-29T07:33:10.859Z,3.13
2022-12-29T07:35:16.216Z,2.65
2022-12-29T07:37:25.836Z,4.63
2022-12-29T07:39:31.143Z,2.22
2022-12-29T07:41:36.476Z,3.55
2022-12-29T07:43:41.823Z,4.05
2022-12-29T07:46:14.572Z,5.55
2022-12-29T07:48:37.126Z,4.93
2022-12-29T07:50:42.589Z,4.70
2022-12-29T07:52:51.066Z,3.85
2022-12-29T07:54:56.681Z,3.92
2022-12-29T07:57:05.467Z,3.22
2022-12-29T07:59:11.295Z,3.17
2022-12-29T08:01:16.723Z,2.80
2022-12-29T08:03:22.143Z,2.78
2022-12-29T08:05:27.947Z,3.33
2022-12-29T08:07:34.163Z,3.65
2022-12-29T08:09:42.786Z,3.10
2022-12-29T08:11:48.628Z,2.60
2022-12-29T08:13:54.709Z,4.22
2022-12-29T08:16:02.616Z,2.85
2022-12-29T08:18:08.570Z,3.70
2022-12-29T08:20:14.768Z,3.40
2022-12-29T08:22:20.705Z,2.55
2022-12-29T08:24:26.673Z,2.03
2022-12-29T08:26:35.090Z,2.78
2022-12-29T08:28:40.861Z,2.45
2022-12-29T08:30:46.713Z,1.83
2022-12-29T08:32:52.689Z,2.40
2022-12-29T08:34:58.775Z,2.55
2022-12-29T08:37:16.772Z,2.83
2022-12-29T08:39:22.599Z,2.80
2022-12-29T08:41:28.955Z,3.08
2022-12-29T08:43:37.673Z,2.20
2022-12-29T08:45:50.387Z,2.60
2022-12-29T08:48:45.190Z,2.80
2022-12-29T08:50:51.443Z,2.60
2022-12-29T08:52:56.867Z,2.72
2022-12-29T08:55:02.369Z,2.70
2022-12-29T08:57:09.248Z,2.03
2022-12-29T08:59:24.181Z,2.58
2022-12-29T09:01:31.635Z,2.22
2022-12-29T09:04:12.707Z,2.83
2022-12-29T09:06:03.708Z,3.25
2022-12-29T09:08:09.536Z,1.70
2022-12-29T09:10:15.342Z,3.30
2022-12-29T09:12:21.968Z,2.53
2022-12-29T09:14:30.299Z,3.00
2022-12-29T09:16:36.144Z,2.90
2022-12-29T09:18:42.960Z,3.72
2022-12-29T09:20:48.674Z,4.40
2022-12-29T09:22:54.933Z,3.03
2022-12-29T09:25:00.584Z,3.03
2022-12-29T09:27:06.310Z,3.83
2022-12-29T09:29:11.623Z,4.70
2022-12-29T09:31:19.568Z,5.38
2022-12-29T09:33:25.134Z,3.35
2022-12-29T09:35:30.444Z,3.47
2022-12-29T09:37:36.647Z,4.60
2022-12-29T09:39:42.055Z,3.42
2022-12-29T09:41:56.314Z,4.40
2022-12-29T09:44:17.092Z,3.35
2022-12-29T09:46:31.248Z,2.58
2022-12-29T09:48:44.515Z,4.20
2022-12-29T09:50:59.507Z,3.53
2022-12-29T09:53:13.760Z,3.25
2022-12-29T09:55:22.927Z,2.97
2022-12-29T09:57:36.407Z,2.58
2022-12-29T09:59:47.351Z,1.95
2022-12-29T10:02:07.342Z,2.22
2022-12-29T10:04:13.562Z,2.40
2022-12-29T10:06:27.932Z,2.88
2022-12-29T10:08:45.896Z,2.63
2022-12-29T10:11:00.409Z,2.75
2022-12-29T10:13:28.929Z,1.75
2022-12-29T10:15:51.768Z,4.07
2022-12-29T10:18:22.473Z,3.15
2022-12-29T10:20:37.762Z,2.45
2022-12-29T10:22:57.425Z,2.45
2022-12-29T10:25:15.024Z,2.53
2022-12-29T10:30:24.834Z,3.45
2022-12-29T10:32:39.287Z,2.90
2022-12-29T10:34:55.661Z,2.78
2022-12-29T10:37:09.354Z,1.70
2022-12-29T10:39:26.001Z,1.92
2022-12-29T10:41:41.996Z,1.55
2022-12-29T10:43:52.426Z,2.17
2022-12-29T10:46:03.142Z,1.60
2022-12-29T10:48:19.536Z,2.80
2022-12-29T10:50:30.522Z,1.63
2022-12-29T10:52:41.827Z,2.80
2022-12-29T10:54:55.513Z,1.75
2022-12-29T10:57:07.472Z,1.98
2022-12-29T10:59:22.436Z,3.00
2022-12-29T11:01:41.051Z,1.77
2022-12-29T11:04:04.608Z,2.08
2022-12-29T11:08:29.124Z,2.20
2022-12-29T11:10:42.245Z,1.35
2022-12-29T11:13:03.448Z,1.88
2022-12-29T11:15:20.315Z,5.28
2022-12-29T11:17:25.741Z,1.63
2022-12-29T11:19:40.539Z,1.80
2022-12-29T11:21:48.720Z,1.85
2022-12-29T11:24:03.797Z,2.42
2022-12-29T11:26:27.669Z,2.33
2022-12-29T11:28:35.535Z,1.90
2022-12-29T11:30:40.910Z,1.92
2022-12-29T11:32:56.334Z,3.30
2022-12-29T11:35:02.821Z,3.67
2022-12-29T11:37:17.593Z,3.13
2022-12-29T11:39:37.833Z,2.60
2022-12-29T11:41:43.458Z,2.38
2022-12-29T11:43:49.580Z,2.35
2022-12-29T11:45:57.748Z,2.83
2022-12-29T11:48:10.678Z,3.53
2022-12-29T11:50:24.540Z,3.78
2022-12-29T11:52:40.469Z,6.55
2022-12-29T11:54:47.276Z,2.78
2022-12-29T11:56:54.948Z,3.05
2022-12-29T11:59:00.332Z,3.47
2022-12-29T12:01:10.893Z,3.03
2022-12-29T12:03:24.939Z,2.88
2022-12-29T12:05:42.466Z,2.20
2022-12-29T12:07:56.053Z,2.17
2022-12-29T12:10:08.789Z,3.72
2022-12-29T12:12:29.317Z,5.35
2022-12-29T12:14:42.399Z,3.78
2022-12-29T12:17:18.385Z,3.20
2022-12-29T12:19:36.593Z,4.22
2022-12-29T12:21:46.179Z,3.50
2022-12-29T12:24:41.181Z,2.53
2022-12-29T12:27:03.580Z,1.83
2022-12-29T12:29:18.100Z,2.10
2022-12-29T12:31:44.633Z,2.63
2022-12-29T12:33:57.496Z,2.80
2022-12-29T12:36:36.229Z,1.98
2022-12-29T12:38:57.856Z,1.60
2022-12-29T12:41:19.755Z,1.83
2022-12-29T12:43:49.044Z,2.08
2022-12-29T12:46:14.355Z,1.35
2022-12-29T12:48:49.291Z,2.83
2022-12-29T12:51:09.391Z,1.88
2022-12-29T12:53:37.941Z,2.25
2022-12-29T12:56:26.559Z,1.88
2022-12-29T12:58:43.971Z,1.10
2022-12-29T13:01:08.196Z,1.48
2022-12-29T13:03:27.810Z,1.52
2022-12-29T13:06:01.082Z,1.90
2022-12-29T13:08:43.879Z,2.28
2022-12-29T13:11:02.149Z,1.65
2022-12-29T13:13:42.030Z,1.65
2022-12-29T13:15:59.232Z,1.25
2022-12-29T13:18:21.235Z,1.55
2022-12-29T13:20:43.734Z,2.63
2022-12-29T13:22:59.415Z,2.38
2022-12-29T13:25:31.354Z,1.90
2022-12-29T13:27:48.487Z,1.70
2022-12-29T13:30:06.535Z,4.68
2022-12-29T13:32:31.289Z,2.33
2022-12-29T13:34:49.709Z,2.58
2022-12-29T13:37:00.870Z,2.42
2022-12-29T13:39:20.639Z,3.03
2022-12-29T13:41:34.805Z,2.63
2022-12-29T13:43:47.884Z,2.10
2022-12-29T13:46:06.139Z,3.35
2022-12-29T13:48:21.139Z,1.10
2022-12-29T13:50:31.152Z,1.80
2022-12-29T13:52:48.312Z,2.42
2022-12-29T13:55:22.580Z,2.05
2022-12-29T13:57:45.225Z,3.50
2022-12-29T14:00:00.161Z,2.35
2022-12-29T14:02:24.877Z,2.47
2022-12-29T14:04:34.230Z,2.17
2022-12-29T14:06:41.872Z,3.55
2022-12-29T14:08:48.304Z,2.45
2022-12-29T14:10:56.449Z,2.40
2022-12-29T14:13:10.464Z,2.88
2022-12-29T14:15:27.473Z,2.20
2022-12-29T14:17:35.397Z,1.63
2022-12-29T14:19:45.028Z,3.13
2022-12-29T14:21:58.541Z,1.63
2022-12-29T14:24:46.919Z,2.15
2022-12-29T14:26:52.403Z,1.38
2022-12-29T14:29:03.009Z,1.40
2022-12-29T14:31:42.556Z,1.58
2022-12-29T14:34:35.249Z,1.58
2022-12-29T14:36:43.972Z,0.68
2022-12-29T14:38:51.086Z,2.03
2022-12-29T14:41:20.959Z,1.50
2022-12-29T14:43:31.108Z,1.85
2022-12-29T14:45:38.775Z,1.30
2022-12-29T14:47:51.424Z,2.95
2022-12-29T14:49:58.427Z,3.30
2022-12-29T14:52:19.393Z,2.60
2022-12-29T14:54:50.333Z,2.05
2022-12-29T14:56:55.984Z,2.85
2022-12-29T14:59:05.812Z,4.15
2022-12-29T15:01:40.735Z,3.40
2022-12-29T15:03:55.504Z,4.88
2022-12-29T15:06:10.612Z,2.72
2022-12-29T15:08:20.025Z,5.03
2022-12-29T15:10:27.890Z,2.58
2022-12-29T15:12:44.458Z,1.90
2022-12-29T15:14:55.887Z,2.78
2022-12-29T15:17:01.700Z,2.80
2022-12-29T15:19:26.667Z,3.35
2022-12-29T15:21:37.300Z,4.72
2022-12-29T15:23:42.819Z,3.08
2022-12-29T15:25:59.399Z,3.33
2022-12-29T15:28:09.985Z,2.75
2022-12-29T15:30:18.913Z,2.20
2022-12-29T15:32:27.043Z,1.95
2022-12-29T15:34:36.624Z,2.55
2022-12-29T15:36:44.919Z,3.35
2022-12-29T15:38:51.166Z,9.40
2022-12-29T15:41:00.157Z,8.65
2022-12-29T15:43:37.069Z,5.07
2022-12-29T15:45:45.043Z,8.55
2022-12-29T15:47:53.924Z,20.63
2022-12-29T15:50:09.131Z,16.90
2022-12-29T15:52:17.138Z,18.65
2022-12-29T15:54:26.971Z,35.50
2022-12-29T15:56:35.073Z,18.55
2022-12-29T15:58:48.732Z,5.55
2022-12-29T16:00:57.867Z,5.05
2022-12-29T16:03:07.123Z,3.50
2022-12-29T16:05:20.813Z,3.17
2022-12-29T16:07:37.289Z,2.47
2022-12-29T16:09:48.636Z,2.40
2022-12-29T16:11:59.733Z,2.60
2022-12-29T16:14:10.755Z,1.95
2022-12-29T16:16:24.248Z,2.80
2022-12-29T16:18:36.628Z,3.22
2022-12-29T16:20:46.473Z,5.00
2022-12-29T16:22:56.507Z,3.10
2022-12-29T16:25:07.643Z,2.78
2022-12-29T16:27:24.308Z,2.58
2022-12-29T16:29:31.701Z,2.88
2022-12-29T16:31:51.807Z,8.63
2022-12-29T16:33:59.079Z,5.03
2022-12-29T16:36:26.762Z,4.05
2022-12-29T16:38:37.224Z,3.95
2022-12-29T16:40:52.835Z,3.15
2022-12-29T16:43:04.850Z,4.57
2022-12-29T16:46:26.330Z,4.90
2022-12-29T16:48:36.438Z,2.70
2022-12-29T16:50:45.658Z,2.45
2022-12-29T16:52:53.969Z,3.30
2022-12-29T16:55:04.578Z,4.30
2022-12-29T16:57:12.941Z,4.78
2022-12-29T16:59:36.347Z,4.05
2022-12-29T17:01:43.220Z,4.65
2022-12-29T17:03:54.221Z,3.88
2022-12-29T17:05:59.412Z,5.22
2022-12-29T17:08:23.852Z,5.45
2022-12-29T17:10:49.910Z,3.92
2022-12-29T17:12:55.191Z,5.65
2022-12-29T17:15:03.552Z,3.10
2022-12-29T17:17:17.152Z,3.53
2022-12-29T17:19:29.035Z,4.43
2022-12-29T17:21:34.277Z,3.50
2022-12-29T17:23:42.313Z,5.03
2022-12-29T17:25:47.671Z,4.57
2022-12-29T17:27:59.572Z,4.25
2022-12-29T17:30:09.198Z,6.15
2022-12-29T17:32:17.933Z,4.82
2022-12-29T17:34:23.705Z,3.60
2022-12-29T17:36:28.972Z,3.60
2022-12-29T17:38:38.859Z,4.28
2022-12-29T17:40:47.126Z,3.72
2022-12-29T17:42:56.750Z,3.40
2022-12-29T17:45:03.987Z,4.95
2022-12-29T17:47:09.224Z,3.85
2022-12-29T17:49:18.288Z,6.32
2022-12-29T17:51:25.520Z,5.22
2022-12-29T17:53:33.523Z,6.88
2022-12-29T17:55:38.961Z,7.68
2022-12-29T17:57:47.014Z,3.60
2022-12-29T17:59:52.483Z,4.38
2022-12-29T18:01:57.915Z,5.88
2022-12-29T18:04:03.123Z,5.78
2022-12-29T18:06:10.567Z,8.73
2022-12-29T18:08:16.452Z,10.00
2022-12-29T18:10:22.929Z,10.70
2022-12-29T18:12:36.348Z,12.63
2022-12-29T18:14:44.663Z,8.02
2022-12-29T18:16:50.569Z,7.70
2022-12-29T18:18:56.415Z,5.57
2022-12-29T18:21:03.689Z,5.38
2022-12-29T18:23:09.544Z,6.07
2022-12-29T18:25:28.598Z,4.78
2022-12-29T18:27:34.339Z,5.30
2022-12-29T18:29:40.519Z,5.53
2022-12-29T18:31:48.456Z,5.53
2022-12-29T18:33:56.114Z,5.63
2022-12-29T18:36:04.402Z,8.57
2022-12-29T18:38:09.935Z,5.03
2022-12-29T18:40:16.829Z,7.03
2022-12-29T18:42:22.465Z,4.80
2022-12-29T18:44:28.373Z,5.13
2022-12-29T18:46:34.412Z,4.65
2022-12-29T18:48:42.783Z,4.75
2022-12-29T18:50:49.164Z,4.55
2022-12-29T18:53:00.076Z,4.30
2022-12-29T18:55:17.205Z,4.57
2022-12-29T18:57:22.457Z,6.15
2022-12-29T18:59:28.135Z,5.43
2022-12-29T19:01:33.649Z,4.93
2022-12-29T19:03:41.617Z,4.45
2022-12-29T19:05:50.071Z,5.55
2022-12-29T19:07:56.588Z,4.90
2022-12-29T19:10:02.974Z,7.53
2022-12-29T19:12:09.014Z,5.25
2022-12-29T19:14:19.483Z,4.82
2022-12-29T19:16:27.172Z,4.15
2022-12-29T19:19:00.896Z,4.63
2022-12-29T19:21:01.482Z,3.72
2022-12-29T19:23:10.181Z,4.22
2022-12-29T19:25:15.769Z,5.88
2022-12-29T19:27:21.071Z,4.18
2022-12-29T19:29:26.270Z,4.43
2022-12-29T19:31:32.061Z,5.80
2022-12-29T19:33:37.384Z,4.88
2022-12-29T19:35:42.819Z,4.75
2022-12-29T19:37:51.084Z,4.88
2022-12-29T19:39:57.532Z,5.07
2022-12-29T19:42:05.607Z,6.68
2022-12-29T19:44:11.206Z,4.13
2022-12-29T19:46:22.093Z,5.20
2022-12-29T19:48:27.320Z,4.75
2022-12-29T19:50:32.834Z,5.25
2022-12-29T19:52:39.068Z,7.65
2022-12-29T19:54:46.836Z,6.18
2022-12-29T19:56:52.121Z,8.90
2022-12-29T19:58:57.790Z,6.20
2022-12-29T20:01:09.076Z,6.28
2022-12-29T20:03:14.800Z,7.13
2022-12-29T20:05:20.262Z,5.78
2022-12-29T20:07:27.070Z,4.88
2022-12-29T20:09:32.278Z,5.10
2022-12-29T20:11:40.512Z,7.15
2022-12-29T20:13:47.303Z,6.68
2022-12-29T20:15:52.824Z,5.18
2022-12-29T20:18:14.805Z,5.57
2022-12-29T20:20:20.669Z,5.35
2022-12-29T20:22:26.183Z,4.50
2022-12-29T20:24:32.177Z,6.55
2022-12-29T20:26:39.970Z,5.15
2022-12-29T20:28:45.483Z,5.47
2022-12-29T20:31:00.049Z,3.42
2022-12-29T20:33:08.422Z,4.70
2022-12-29T20:35:16.993Z,4.88
2022-12-29T20:37:23.666Z,7.18
2022-12-29T20:39:29.059Z,4.57
2022-12-29T20:41:34.331Z,5.25
2022-12-29T20:43:42.839Z,5.70
2022-12-29T20:45:48.250Z,5.80
2022-12-29T20:47:53.475Z,6.35
2022-12-29T20:49:58.721Z,6.28
2022-12-29T20:52:07.043Z,4.22
2022-12-29T20:54:13.853Z,6.22
2022-12-29T20:56:23.060Z,4.07
2022-12-29T20:58:28.281Z,5.20
2022-12-29T21:00:36.459Z,5.13
2022-12-29T21:02:41.965Z,4.95
2022-12-29T21:05:21.966Z,4.57
2022-12-29T21:07:19.612Z,4.35
2022-12-29T21:09:25.551Z,4.07
2022-12-29T21:11:31.921Z,3.85
2022-12-29T21:13:37.618Z,6.30
2022-12-29T21:15:45.562Z,3.78
2022-12-29T21:17:51.306Z,5.00
2022-12-29T21:19:56.767Z,5.68
2022-12-29T21:22:02.137Z,6.43
2022-12-29T21:24:08.078Z,5.57
2022-12-29T21:26:15.998Z,5.40
2022-12-29T21:28:21.711Z,5.72
2022-12-29T21:30:26.930Z,5.15
2022-12-29T21:32:35.596Z,5.00
2022-12-29T21:34:41.068Z,6.05
2022-12-29T21:36:46.312Z,6.28
2022-12-29T21:38:51.594Z,6.15
2022-12-29T21:40:56.771Z,6.90
2022-12-29T21:43:02.380Z,5.28
2022-12-29T21:45:22.608Z,7.22
2022-12-29T21:47:48.449Z,5.72
2022-12-29T21:49:56.321Z,4.55
2022-12-29T21:52:01.583Z,5.05
2022-12-29T21:54:19.549Z,3.97
2022-12-29T21:56:26.666Z,5.40
2022-12-29T21:58:44.391Z,3.58
2022-12-29T22:01:02.214Z,3.72
2022-12-29T22:03:23.457Z,5.28
2022-12-29T22:05:44.338Z,4.00
2022-12-29T22:08:01.980Z,3.10
2022-12-29T22:10:21.102Z,4.22
2022-12-29T22:12:39.136Z,3.50
2022-12-29T22:14:44.526Z,3.55
2022-12-29T22:16:49.711Z,4.35
2022-12-29T22:18:55.422Z,5.07
2022-12-29T22:21:07.271Z,3.60
2022-12-29T22:23:12.723Z,3.97
2022-12-29T22:25:18.555Z,2.90
2022-12-29T22:27:23.871Z,3.20
2022-12-29T22:29:29.128Z,3.85
2022-12-29T22:31:34.602Z,3.50
2022-12-29T22:33:39.847Z,3.55
2022-12-29T22:35:45.338Z,4.88
2022-12-29T22:37:53.495Z,4.15
2022-12-29T22:39:59.883Z,4.72
2022-12-29T22:42:05.360Z,3.40
2022-12-29T22:44:10.984Z,4.70
2022-12-29T22:46:16.222Z,3.40
2022-12-29T22:48:21.854Z,4.05
2022-12-29T22:50:27.135Z,3.97
2022-12-29T22:52:32.452Z,3.35
2022-12-29T22:54:40.463Z,4.20
2022-12-29T22:56:45.954Z,4.07
2022-12-29T22:58:52.162Z,4.10
2022-12-29T23:00:57.965Z,9.27
2022-12-29T23:03:04.191Z,3.15
2022-12-29T23:05:10.451Z,3.53
2022-12-29T23:07:15.673Z,2.67
2022-12-29T23:09:24.630Z,3.53
2022-12-29T23:11:33.300Z,3.25
2022-12-29T23:13:39.182Z,2.63
2022-12-29T23:15:45.212Z,3.60
2022-12-29T23:17:50.781Z,2.92
2022-12-29T23:19:56.294Z,5.22
2022-12-29T23:22:01.979Z,2.80
2022-12-29T23:24:08.093Z,3.25
2022-12-29T23:26:13.567Z,3.10
2022-12-29T23:28:21.513Z,3.13
2022-12-29T23:30:26.801Z,3.28
2022-12-29T23:32:32.255Z,2.35
2022-12-29T23:34:37.761Z,2.28
2022-12-29T23:36:44.067Z,2.55
2022-12-29T23:38:49.482Z,2.85
2022-12-29T23:40:54.772Z,3.17
2022-12-29T23:43:00.105Z,2.50
2022-12-29T23:45:10.200Z,2.38
2022-12-29T23:47:15.938Z,2.20
2022-12-29T23:49:21.373Z,2.17
2022-12-29T23:51:27.355Z,1.77
2022-12-29T23:53:32.608Z,2.28
2022-12-29T23:55:37.876Z,1.70
2022-12-29T23:57:43.145Z,1.13
2022-12-29T23:59:48.690Z,1.90
